Time;durP1;ratioP1;P1;durP2;ratioP2;P2;SDS_P1;SDS_P2;PMS_P1;PMS_P2;Temp;Humidity;BMP_temperature;BMP_pressure;BME280_temperature;BME280_humidity;BME280_pressure;Samples;Min_cycle;Max_cycle;Signal;HPM_P1;HPM_P2
2021/12/31 00:01:11;;;;;;;12.35;4.30;;;;;;;-6.18;73.75;99201.75;4850227;29;20527;-61
2021/12/31 00:03:38;;;;;;;18.80;8.77;;;;;;;-6.29;74.49;99200.66;4853109;29;20459;-64
2021/12/31 00:06:06;;;;;;;19.38;8.02;;;;;;;-6.29;73.85;99197.97;4849263;29;20437;-63
2021/12/31 00:08:33;;;;;;;20.27;8.48;;;;;;;-6.29;74.00;99197.97;4849603;29;20053;-63
2021/12/31 00:11:01;;;;;;;14.30;6.50;;;;;;;-6.23;74.81;99198.91;4848245;29;20152;-61
2021/12/31 00:13:29;;;;;;;17.40;7.25;;;;;;;-6.23;74.54;99197.03;4849961;29;20390;-62
2021/12/31 00:15:57;;;;;;;19.02;6.65;;;;;;;-6.21;74.36;99203.03;4847795;29;20060;-62
2021/12/31 00:18:23;;;;;;;20.60;8.07;;;;;;;-6.13;73.65;99202.69;4850560;29;20050;-63
2021/12/31 00:20:50;;;;;;;20.30;8.70;;;;;;;-6.05;73.76;99191.50;4854917;29;20509;-62
2021/12/31 00:23:23;;;;;;;15.55;6.22;;;;;;;-5.99;74.00;99196.00;4850865;29;20387;-63
2021/12/31 00:25:50;;;;;;;15.32;6.57;;;;;;;-5.98;74.00;99197.63;4846848;29;20057;-62
2021/12/31 00:28:17;;;;;;;18.40;8.30;;;;;;;-5.97;73.89;99193.88;4851544;29;20061;-64
2021/12/31 00:30:45;;;;;;;19.13;8.18;;;;;;;-6.03;74.00;99192.13;4847034;29;20081;-64
2021/12/31 00:33:11;;;;;;;21.00;7.53;;;;;;;-5.96;73.87;99184.69;4848289;29;20046;-64
2021/12/31 00:35:38;;;;;;;18.65;7.97;;;;;;;-5.94;74.19;99188.00;4846815;29;20418;-63
2021/12/31 00:38:06;;;;;;;19.50;7.55;;;;;;;-5.95;74.08;99182.81;4850367;29;20049;-62
2021/12/31 00:40:33;;;;;;;22.75;9.25;;;;;;;-5.96;73.66;99173.03;4846973;29;20514;-62
2021/12/31 00:43:00;;;;;;;13.70;6.55;;;;;;;-6.06;74.07;99170.09;4849270;29;20525;-62
2021/12/31 00:45:27;;;;;;;19.70;8.57;;;;;;;-6.04;74.25;99166.09;4847993;29;20424;-62
2021/12/31 00:47:55;;;;;;;16.38;6.95;;;;;;;-5.96;74.11;99168.44;4848931;29;20053;-62
2021/12/31 00:50:22;;;;;;;17.75;7.90;;;;;;;-5.99;73.95;99162.66;4848598;29;20054;-59
2021/12/31 00:52:49;;;;;;;17.02;7.78;;;;;;;-5.92;73.81;99166.09;4847884;29;20056;-59
2021/12/31 00:55:16;;;;;;;17.35;7.20;;;;;;;-5.94;74.15;99169.03;4849160;29;20065;-60
2021/12/31 00:57:43;;;;;;;25.90;9.20;;;;;;;-6.00;73.46;99161.03;4847125;29;20056;-60
2021/12/31 01:00:13;;;;;;;17.75;7.85;;;;;;;-6.06;74.34;99159.25;4850137;29;20058;-60
2021/12/31 01:02:43;;;;;;;17.93;8.30;;;;;;;-5.98;74.06;99154.31;4847366;29;20064;-60
2021/12/31 01:05:11;;;;;;;13.32;6.10;;;;;;;-5.97;73.66;99155.97;4849793;29;20294;-57
2021/12/31 01:07:39;;;;;;;17.88;6.43;;;;;;;-6.09;74.29;99160.56;4846477;29;20058;-59
2021/12/31 01:10:11;;;;;;;19.38;7.53;;;;;;;-6.11;74.74;99159.13;4850103;29;20064;-59
2021/12/31 01:12:38;;;;;;;23.25;8.02;;;;;;;-6.03;74.43;99148.81;4846396;29;20049;-59
2021/12/31 01:15:10;;;;;;;20.95;8.88;;;;;;;-5.95;74.05;99153.84;4850433;29;20137;-59
2021/12/31 01:18:17;;;;;;;20.08;8.45;;;;;;;-5.89;74.15;99147.47;4846379;29;20418;-60
2021/12/31 01:20:30;;;;;;;14.48;6.20;;;;;;;-5.95;73.87;99143.00;4847159;29;20054;-59
2021/12/31 01:22:57;;;;;;;21.48;9.13;;;;;;;-5.98;74.39;99151.59;4846669;29;20109;-59
2021/12/31 01:25:24;;;;;;;21.02;8.07;;;;;;;-5.94;74.34;99150.09;4847481;29;20062;-58
2021/12/31 01:27:51;;;;;;;22.27;8.40;;;;;;;-5.86;73.82;99140.78;4847632;29;20084;-60
2021/12/31 01:30:18;;;;;;;17.98;7.53;;;;;;;-5.77;73.97;99133.91;4848288;29;20141;-56
2021/12/31 01:32:49;;;;;;;22.80;9.20;;;;;;;-5.76;73.39;99136.38;4848196;29;20060;-60
2021/12/31 01:35:17;;;;;;;18.70;7.03;;;;;;;-5.73;73.78;99141.31;4846553;29;20071;-59
2021/12/31 01:37:44;;;;;;;16.15;6.45;;;;;;;-5.74;74.12;99134.22;4846875;29;20501;-59
2021/12/31 01:40:12;;;;;;;13.63;6.53;;;;;;;-5.79;73.98;99128.72;4849775;29;20553;-56
2021/12/31 01:42:39;;;;;;;15.45;7.15;;;;;;;-5.82;74.06;99125.69;4845689;29;20065;-57
2021/12/31 01:45:12;;;;;;;16.75;7.20;;;;;;;-5.82;74.41;99121.13;4847124;29;20081;-60
2021/12/31 01:50:25;;;;;;;20.77;7.93;;;;;;;-5.74;73.89;99123.41;4846089;29;20062;-58
2021/12/31 01:52:52;;;;;;;17.52;8.23;;;;;;;-5.75;73.83;99118.22;4847067;29;20052;-58
2021/12/31 01:55:22;;;;;;;19.40;7.57;;;;;;;-5.74;74.03;99120.69;4845979;29;20487;-59
2021/12/31 01:57:50;;;;;;;24.65;8.05;;;;;;;-5.71;73.47;99109.38;4848744;29;20058;-59
2021/12/31 02:00:17;;;;;;;16.58;7.35;;;;;;;-5.74;73.47;99109.84;4852534;29;20060;-55
2021/12/31 02:02:46;;;;;;;25.35;8.55;;;;;;;-5.72;73.72;99110.44;4849385;29;20494;-59
2021/12/31 02:05:14;;;;;;;18.17;7.88;;;;;;;-5.70;73.78;99102.91;4860548;29;20078;-59
2021/12/31 02:07:41;;;;;;;15.55;5.65;;;;;;;-5.67;73.79;99096.19;4856522;29;20072;-58
2021/12/31 02:10:09;;;;;;;11.50;5.95;;;;;;;-5.75;73.80;99097.38;4853831;29;20057;-57
2021/12/31 02:12:46;;;;;;;17.80;8.10;;;;;;;-5.78;74.00;99102.44;4849012;29;20057;-59
2021/12/31 02:15:15;;;;;;;17.95;7.57;;;;;;;-5.89;73.55;99095.22;4853180;29;20054;-58
2021/12/31 02:17:44;;;;;;;20.60;8.15;;;;;;;-5.89;74.06;99082.50;4849007;29;20136;-59
2021/12/31 02:20:12;;;;;;;18.42;7.35;;;;;;;-5.90;74.03;99085.44;4853907;29;20059;-57
2021/12/31 02:22:44;;;;;;;25.27;6.88;;;;;;;-5.92;73.83;99080.25;4848563;29;20161;-56
2021/12/31 02:25:11;;;;;;;19.30;8.27;;;;;;;-5.85;74.03;99082.84;4853266;29;20053;-60
2021/12/31 02:27:40;;;;;;;16.88;7.20;;;;;;;-5.77;73.85;99083.25;4849093;29;20133;-60
2021/12/31 02:30:09;;;;;;;21.33;8.15;;;;;;;-5.77;73.78;99074.31;4853368;29;20061;-60
2021/12/31 02:32:37;;;;;;;20.75;9.00;;;;;;;-5.73;73.91;99076.31;4850241;29;20064;-59
2021/12/31 02:35:07;;;;;;;16.17;6.70;;;;;;;-5.70;73.72;99080.41;4854148;29;20072;-59
2021/12/31 02:37:35;;;;;;;16.80;6.82;;;;;;;-5.77;73.75;99080.53;4855966;29;20056;-59
2021/12/31 02:40:08;;;;;;;21.10;8.48;;;;;;;-5.80;73.74;99072.09;4852628;29;20068;-56
2021/12/31 02:42:36;;;;;;;21.83;8.10;;;;;;;-5.77;73.83;99064.28;4855358;29;20058;-59
2021/12/31 02:45:06;;;;;;;26.95;8.68;;;;;;;-5.71;73.90;99065.25;4852984;29;20053;-59
2021/12/31 02:47:34;;;;;;;;;;;;;;;-5.79;73.48;99063.75;4856333;29;20050;-60
2021/12/31 02:50:04;;;;;;;17.65;7.97;;;;;;;-5.79;74.00;99066.44;4852431;29;19928;-59
2021/12/31 02:52:31;;;;;;;18.67;7.43;;;;;;;-5.83;73.95;99064.47;4848476;29;20474;-58
2021/12/31 02:55:01;;;;;;;20.13;8.43;;;;;;;-5.87;73.81;99045.19;4851654;29;20057;-61
2021/12/31 02:57:29;;;;;;;18.77;6.43;;;;;;;-5.94;74.17;99041.78;4848683;29;20577;-58
2021/12/31 02:59:57;;;;;;;23.40;8.65;;;;;;;-5.92;74.07;99041.56;4851102;29;20073;-58
2021/12/31 03:02:25;;;;;;;18.42;6.95;;;;;;;-5.94;74.46;99039.09;4849379;29;20053;-59
2021/12/31 03:04:53;;;;;;;24.15;9.63;;;;;;;-5.98;74.36;99032.47;4850907;29;20109;-59
2021/12/31 03:07:22;;;;;;;18.48;7.35;;;;;;;-5.92;74.19;99034.22;4853591;29;20077;-59
2021/12/31 03:09:50;;;;;;;21.10;8.10;;;;;;;-5.83;74.08;99042.81;4853280;29;20068;-59
2021/12/31 03:12:17;;;;;;;21.08;7.97;;;;;;;-5.76;74.46;99038.88;4850375;29;20062;-59
2021/12/31 03:14:47;;;;;;;19.80;8.73;;;;;;;-5.66;74.44;99040.94;4849791;29;20054;-58
2021/12/31 03:17:14;;;;;;;16.27;6.80;;;;;;;-5.66;74.01;99039.06;4850486;29;20054;-59
2021/12/31 03:19:43;;;;;;;21.88;8.13;;;;;;;-5.62;73.90;99029.38;4849315;29;20058;-58
2021/12/31 03:22:11;;;;;;;23.05;8.40;;;;;;;-5.65;74.04;99046.13;4847634;29;20053;-60
2021/12/31 03:24:37;;;;;;;21.73;7.70;;;;;;;-5.62;74.12;99037.50;4848211;29;20065;-62
2021/12/31 03:27:05;;;;;;;14.63;6.57;;;;;;;-5.65;73.97;99029.06;4851477;29;20517;-61
2021/12/31 03:29:32;;;;;;;18.40;6.68;;;;;;;-5.72;73.98;99029.19;4847741;29;20083;-62
2021/12/31 03:31:59;;;;;;;18.77;6.65;;;;;;;-5.79;74.41;99025.81;4856603;29;20510;-62
2021/12/31 03:34:26;;;;;;;20.67;8.20;;;;;;;-5.88;74.50;99018.34;4854295;29;20537;-63
2021/12/31 03:36:55;;;;;;;19.65;7.28;;;;;;;-5.90;74.76;99007.75;4852144;29;20053;-61
2021/12/31 03:39:22;;;;;;;18.35;7.40;;;;;;;-5.85;74.79;98994.31;4854948;29;20061;-62
2021/12/31 03:41:49;;;;;;;23.17;8.57;;;;;;;-5.85;74.73;98990.78;4850965;29;20069;-62
2021/12/31 03:44:16;;;;;;;22.30;8.38;;;;;;;-5.77;74.64;98999.31;4848025;29;20057;-62
2021/12/31 03:46:43;;;;;;;23.88;8.77;;;;;;;-5.70;74.92;98981.03;4850373;29;20049;-62
2021/12/31 03:49:11;;;;;;;21.45;8.95;;;;;;;-5.64;74.57;98992.78;4848900;29;20064;-62
2021/12/31 03:51:37;;;;;;;20.58;6.85;;;;;;;-5.63;74.46;98983.59;4849304;29;20096;-61
2021/12/31 03:54:05;;;;;;;22.80;9.80;;;;;;;-5.74;74.65;98970.94;4849478;29;20132;-62
2021/12/31 03:56:33;;;;;;;20.00;7.28;;;;;;;-5.70;74.78;98983.75;4848692;29;20146;-62
2021/12/31 03:59:00;;;;;;;28.10;8.93;;;;;;;-5.62;74.54;98975.22;4848229;29;20052;-62
2021/12/31 04:01:27;;;;;;;21.55;7.75;;;;;;;-5.68;74.51;98975.38;4847799;29;20073;-61
2021/12/31 04:03:56;;;;;;;18.52;8.02;;;;;;;-5.73;74.55;98962.56;4850353;29;20053;-63
2021/12/31 04:06:23;;;;;;;20.23;7.63;;;;;;;-5.70;74.35;98956.66;4847315;29;20061;-62
2021/12/31 04:08:50;;;;;;;21.80;7.50;;;;;;;-5.64;74.87;98960.28;4851395;29;20060;-61
2021/12/31 04:11:18;;;;;;;20.00;7.50;;;;;;;-5.58;74.42;98958.47;4846999;29;20148;-62
2021/12/31 04:13:45;;;;;;;17.92;6.88;;;;;;;-5.55;74.39;98961.53;4851574;29;20520;-62
2021/12/31 04:16:12;;;;;;;19.15;7.47;;;;;;;-5.63;74.53;98959.19;4847173;29;20060;-62
2021/12/31 04:18:39;;;;;;;17.33;7.78;;;;;;;-5.63;74.67;98959.19;4851352;29;20528;-61
2021/12/31 04:21:06;;;;;;;19.65;7.93;;;;;;;-5.57;74.59;98960.13;4854563;29;20064;-62
2021/12/31 04:23:46;;;;;;;22.75;8.75;;;;;;;-5.56;74.48;98964.47;4850529;29;20421;-61
2021/12/31 04:26:15;;;;;;;24.10;7.30;;;;;;;-5.52;74.66;98969.16;4853801;29;20533;-63
2021/12/31 04:28:43;;;;;;;18.30;7.78;;;;;;;-5.44;74.18;98970.66;4851483;29;20416;-61
2021/12/31 04:31:10;;;;;;;27.27;8.80;;;;;;;-5.40;74.01;98977.22;4854149;29;20505;-62
2021/12/31 04:33:38;;;;;;;22.42;8.35;;;;;;;-5.40;74.14;98971.81;4852934;29;20069;-62
2021/12/31 04:36:05;;;;;;;21.63;8.40;;;;;;;-5.40;73.96;98971.81;4846790;29;20056;-63
2021/12/31 04:38:32;;;;;;;20.45;6.70;;;;;;;-5.42;74.14;98972.03;4849581;29;20068;-62
2021/12/31 04:40:58;;;;;;;3.08;1.58;;;;;;;-5.49;74.57;98970.56;4847932;29;20057;-62
2021/12/31 04:43:26;;;;;;;23.42;8.02;;;;;;;-5.54;74.81;98978.63;4848542;29;20050;-62
2021/12/31 04:45:53;;;;;;;16.58;7.07;;;;;;;-5.52;74.55;98974.59;4849350;29;20152;-63
2021/12/31 04:48:20;;;;;;;17.27;7.28;;;;;;;-5.53;74.48;98972.13;4847769;29;20057;-59
2021/12/31 04:50:47;;;;;;;21.15;8.18;;;;;;;-5.53;74.14;98972.94;4856009;29;20054;-58
2021/12/31 04:53:14;;;;;;;16.52;7.07;;;;;;;-5.49;74.66;98974.09;4846738;29;20144;-58
2021/12/31 04:55:41;;;;;;;15.13;6.50;;;;;;;-5.45;74.32;98974.44;4850660;29;20046;-59
2021/12/31 04:58:08;;;;;;;20.02;7.47;;;;;;;-5.45;74.33;98979.88;4846329;29;20065;-58
2021/12/31 05:00:35;;;;;;;15.98;6.63;;;;;;;-5.56;74.64;98970.72;4850964;29;20064;-59
2021/12/31 05:03:07;;;;;;;20.48;7.18;;;;;;;-5.55;74.67;98971.53;4845979;29;20136;-59
2021/12/31 05:05:35;;;;;;;20.00;7.43;;;;;;;-5.57;74.73;98954.72;4851060;29;20061;-60
2021/12/31 05:08:02;;;;;;;20.63;7.35;;;;;;;-5.53;74.63;98945.84;4846010;29;20053;-58
2021/12/31 05:10:31;;;;;;;19.20;6.72;;;;;;;-5.46;74.52;98940.25;4851047;29;20092;-61
2021/12/31 05:13:03;;;;;;;17.25;7.13;;;;;;;-5.41;74.47;98937.66;4853829;29;20137;-62
2021/12/31 05:15:35;;;;;;;18.73;6.70;;;;;;;-5.42;74.27;98936.03;4850757;29;20080;-62
2021/12/31 05:18:02;;;;;;;18.67;6.05;;;;;;;-5.48;74.64;98937.81;4853061;29;20058;-62
2021/12/31 05:20:30;;;;;;;14.13;6.15;;;;;;;-5.56;74.38;98918.44;4850428;29;20054;-62
2021/12/31 05:23:00;;;;;;;18.42;7.82;;;;;;;-5.64;74.54;98925.06;4845912;29;20053;-63
2021/12/31 05:25:28;;;;;;;15.13;7.15;;;;;;;-5.60;75.01;98909.97;4849989;29;20426;-62
2021/12/31 05:27:55;;;;;;;16.50;6.68;;;;;;;-5.56;74.70;98907.59;4847040;29;20068;-62
2021/12/31 05:30:22;;;;;;;17.40;7.55;;;;;;;-5.50;74.49;98906.59;4849539;29;20056;-62
2021/12/31 05:32:49;;;;;;;17.95;7.78;;;;;;;-5.44;74.86;98911.03;4852722;29;20159;-62
2021/12/31 05:35:16;;;;;;;19.60;7.25;;;;;;;-5.40;74.41;98912.19;4854974;29;20064;-63
2021/12/31 05:37:42;;;;;;;13.43;5.60;;;;;;;-5.41;74.54;98910.56;4852084;29;20058;-62
2021/12/31 05:40:10;;;;;;;21.52;7.93;;;;;;;-5.42;74.70;98908.91;4850776;29;20064;-59
2021/12/31 05:42:37;;;;;;;14.65;6.72;;;;;;;-5.48;74.21;98912.63;4849171;29;20065;-59
2021/12/31 05:45:05;;;;;;;20.10;8.98;;;;;;;-5.43;74.62;98924.34;4849990;29;20062;-58
2021/12/31 05:47:32;;;;;;;17.42;6.47;;;;;;;-5.36;74.57;98918.78;4853423;29;20064;-60
2021/12/31 05:49:59;;;;;;;17.27;7.05;;;;;;;-5.39;74.54;98919.28;4849553;29;20521;-58
2021/12/31 05:52:26;;;;;;;12.55;5.63;;;;;;;-5.44;74.75;98913.75;4850190;29;20057;-57
2021/12/31 05:54:53;;;;;;;20.40;7.78;;;;;;;-5.45;75.15;98925.66;4849687;29;20584;-58
2021/12/31 05:57:20;;;;;;;15.40;6.75;;;;;;;-5.47;75.13;98919.66;4852547;29;20149;-58
2021/12/31 05:59:47;;;;;;;12.55;6.30;;;;;;;-5.41;74.50;98916.81;4856980;29;20132;-59
2021/12/31 06:02:14;;;;;;;19.85;7.85;;;;;;;-5.36;74.65;98921.50;4852906;29;20065;-62
2021/12/31 06:04:41;;;;;;;23.48;7.65;;;;;;;-5.33;74.84;98908.25;4849985;29;20054;-59
2021/12/31 06:07:09;;;;;;;18.38;6.88;;;;;;;-5.27;74.77;98911.88;4850150;29;20057;-61
2021/12/31 06:09:35;;;;;;;19.13;7.90;;;;;;;-5.24;74.32;98901.34;4848930;29;20054;-57
2021/12/31 06:12:03;;;;;;;16.45;6.82;;;;;;;-5.21;74.22;98906.28;4850806;29;20054;-59
2021/12/31 06:14:30;;;;;;;17.90;6.70;;;;;;;-5.17;74.36;98907.44;4851492;29;20106;-60
2021/12/31 06:17:05;;;;;;;23.08;7.50;;;;;;;-5.13;74.56;98907.78;4850207;29;20078;-58
2021/12/31 06:19:33;;;;;;;20.30;7.40;;;;;;;-5.11;74.32;98902.91;4856548;29;20510;-58
2021/12/31 06:22:01;;;;;;;13.35;5.80;;;;;;;-5.16;74.78;98903.66;4850497;29;20065;-57
2021/12/31 06:24:28;;;;;;;18.85;7.43;;;;;;;-5.18;74.75;98913.13;4851592;29;20101;-61
2021/12/31 06:26:55;;;;;;;15.18;6.50;;;;;;;-5.13;74.42;98911.28;4849427;29;20057;-60
2021/12/31 06:29:22;;;;;;;18.48;6.80;;;;;;;-5.07;74.02;98912.22;4853059;29;20057;-59
2021/12/31 06:31:49;;;;;;;16.45;6.28;;;;;;;-5.03;74.07;98913.34;4848695;29;20453;-59
2021/12/31 06:34:16;;;;;;;16.67;6.18;;;;;;;-5.04;74.07;98917.13;4860836;29;20077;-58
2021/12/31 06:36:43;;;;;;;14.48;6.05;;;;;;;-5.01;74.78;98912.03;4848765;29;20054;-59
2021/12/31 06:39:09;;;;;;;18.35;7.18;;;;;;;-4.96;74.08;98914.00;4853208;29;20054;-58
2021/12/31 06:41:37;;;;;;;15.75;6.97;;;;;;;-4.97;73.59;98909.66;4848332;29;20073;-60
2021/12/31 06:44:04;;;;;;;15.07;6.05;;;;;;;-4.97;74.40;98901.50;4851948;29;20068;-57
2021/12/31 06:46:31;;;;;;;16.20;7.55;;;;;;;-4.93;74.00;98911.59;4849271;29;20054;-60
2021/12/31 06:48:58;;;;;;;20.45;6.45;;;;;;;-4.92;74.29;98907.00;4851400;29;20065;-59
2021/12/31 06:51:25;;;;;;;22.75;7.93;;;;;;;-4.91;74.23;98900.50;4849904;29;20146;-59
2021/12/31 06:53:51;;;;;;;17.30;6.50;;;;;;;-4.96;74.24;98893.13;4850749;29;20061;-59
2021/12/31 06:56:18;;;;;;;19.17;7.20;;;;;;;-4.98;74.85;98891.75;4854818;29;20061;-58
2021/12/31 06:58:45;;;;;;;16.70;7.40;;;;;;;-4.92;74.64;98885.31;4849529;29;20065;-57
2021/12/31 07:01:13;;;;;;;13.35;6.28;;;;;;;-4.90;74.42;98883.16;4848196;29;20057;-59
2021/12/31 07:03:40;;;;;;;14.90;6.53;;;;;;;-4.94;73.95;98884.75;4848579;29;20050;-61
2021/12/31 07:06:07;;;;;;;19.33;6.95;;;;;;;-4.92;74.72;98877.19;4852211;29;20056;-60
2021/12/31 07:08:34;;;;;;;17.08;6.88;;;;;;;-4.88;74.71;98879.16;4848187;29;20058;-59
2021/12/31 07:11:01;;;;;;;14.82;6.45;;;;;;;-4.85;74.08;98877.81;4852524;29;20056;-61
2021/12/31 07:13:28;;;;;;;19.33;8.02;;;;;;;-4.81;74.11;98881.66;4848285;29;20050;-58
2021/12/31 07:15:55;;;;;;;22.10;7.05;;;;;;;-4.80;74.14;98869.75;4852039;29;20144;-59
2021/12/31 07:18:23;;;;;;;7.80;4.07;;;;;;;-4.80;74.36;98870.56;4847917;29;20058;-59
2021/12/31 07:20:50;;;;;;;16.15;6.43;;;;;;;-4.92;73.87;98864.44;4849034;29;20525;-59
2021/12/31 07:23:19;;;;;;;15.77;6.20;;;;;;;-4.90;74.23;98865.00;4847801;29;20065;-60
2021/12/31 07:25:46;;;;;;;15.18;6.72;;;;;;;-4.90;74.27;98864.19;4850852;29;20144;-59
2021/12/31 07:28:14;;;;;;;21.88;6.78;;;;;;;-4.86;74.11;98849.88;4849142;29;20502;-59
2021/12/31 07:30:43;;;;;;;17.23;6.55;;;;;;;-4.89;74.50;98855.00;4850002;29;20053;-59
2021/12/31 07:33:17;;;;;;;20.67;5.90;;;;;;;-4.87;74.61;98860.97;4849081;29;20144;-57
2021/12/31 07:35:45;;;;;;;18.42;7.82;;;;;;;-4.84;74.16;98853.16;4850326;29;20067;-60
2021/12/31 07:38:20;;;;;;;15.48;7.38;;;;;;;-4.74;74.29;98861.41;4849662;29;20142;-62
2021/12/31 07:40:48;;;;;;;19.88;7.22;;;;;;;-4.70;73.62;98851.72;4849985;29;20072;-52
2021/12/31 07:43:15;;;;;;;15.15;6.75;;;;;;;-4.66;74.03;98852.03;4848724;29;20514;-59
2021/12/31 07:45:42;;;;;;;19.17;5.85;;;;;;;-4.74;74.21;98841.63;4849601;29;20061;-60
2021/12/31 07:48:09;;;;;;;16.85;7.32;;;;;;;-4.74;73.98;98838.91;4849638;29;20080;-63
2021/12/31 07:50:37;;;;;;;16.00;6.80;;;;;;;-4.71;73.81;98847.34;4848857;29;20057;-58
2021/12/31 07:53:04;;;;;;;17.63;7.70;;;;;;;-4.82;73.75;98829.31;4851310;29;20060;-60
2021/12/31 07:55:32;;;;;;;15.80;7.03;;;;;;;-4.76;74.31;98838.34;4852004;29;20144;-59
2021/12/31 07:57:59;;;;;;;14.88;5.93;;;;;;;-4.81;73.70;98849.13;4851031;29;20061;-60
2021/12/31 08:00:26;;;;;;;17.30;7.50;;;;;;;-4.80;73.99;98835.31;4847450;29;20458;-59
2021/12/31 08:02:55;;;;;;;17.85;7.25;;;;;;;-4.70;74.27;98831.91;4851097;29;20053;-57
2021/12/31 08:05:23;;;;;;;19.20;7.13;;;;;;;-4.63;74.03;98836.06;4847419;29;20053;-59
2021/12/31 08:07:51;;;;;;;18.38;6.90;;;;;;;-4.67;74.14;98834.13;4851429;29;20144;-61
2021/12/31 08:10:18;;;;;;;14.50;6.50;;;;;;;-4.63;73.82;98814.38;4842234;29;20054;-56
2021/12/31 08:13:01;;;;;;;23.90;7.78;;;;;;;-4.53;73.50;98821.81;4857663;29;20375;-59
2021/12/31 08:15:29;;;;;;;17.27;7.97;;;;;;;-4.56;73.88;98814.97;4847273;29;20050;-58
2021/12/31 08:17:56;;;;;;;17.52;6.63;;;;;;;-4.64;74.59;98809.19;4850860;29;20053;-60
2021/12/31 08:20:27;;;;;;;20.95;6.82;;;;;;;-4.58;73.39;98800.03;4854685;29;20049;-61
2021/12/31 08:22:54;;;;;;;15.38;6.60;;;;;;;-4.57;73.72;98788.94;4851334;29;20105;-58
2021/12/31 08:25:21;;;;;;;17.00;6.97;;;;;;;-4.54;73.77;98795.75;4846865;29;20477;-60
2021/12/31 08:27:48;;;;;;;18.05;8.00;;;;;;;-4.49;73.87;98787.66;4851380;29;20054;-60
2021/12/31 08:30:15;;;;;;;16.60;7.38;;;;;;;-4.43;74.27;98789.34;4846803;29;20417;-56
2021/12/31 08:32:42;;;;;;;18.42;7.78;;;;;;;-4.39;74.07;98780.44;4850600;29;20057;-60
2021/12/31 08:35:10;;;;;;;18.02;7.20;;;;;;;-4.36;73.59;98784.53;4846751;29;20572;-59
2021/12/31 08:37:38;;;;;;;15.68;6.85;;;;;;;-4.34;73.30;98779.69;4850140;29;20049;-59
2021/12/31 08:40:06;;;;;;;21.23;8.05;;;;;;;-4.52;73.99;98772.72;4847453;29;20066;-60
2021/12/31 08:42:34;;;;;;;24.38;8.55;;;;;;;-4.51;73.75;98778.94;4849343;29;20061;-58
2021/12/31 08:45:01;;;;;;;18.63;7.65;;;;;;;-4.61;74.24;98759.84;4847970;29;20042;-58
2021/12/31 08:47:28;;;;;;;13.43;6.20;;;;;;;-4.58;74.25;98770.19;4848644;29;20437;-60
2021/12/31 08:49:56;;;;;;;14.52;6.93;;;;;;;-4.64;73.60;98780.19;4848885;29;20419;-58
2021/12/31 08:52:22;;;;;;;19.90;7.82;;;;;;;-4.71;73.42;98765.97;4847570;29;20057;-61
2021/12/31 08:54:49;;;;;;;30.42;8.27;;;;;;;-4.58;73.62;98770.19;4854219;29;20497;-60
2021/12/31 08:57:16;;;;;;;21.70;8.85;;;;;;;-4.55;73.63;98746.09;4843097;29;20068;-58
2021/12/31 08:59:43;;;;;;;21.13;8.52;;;;;;;-4.47;73.66;98761.09;4850594;29;20422;-60
2021/12/31 09:02:11;;;;;;;16.63;7.68;;;;;;;-4.48;73.72;98748.59;4846200;29;20058;-61
2021/12/31 09:04:38;;;;;;;21.02;7.88;;;;;;;-4.53;73.59;98756.69;4850926;29;20054;-60
2021/12/31 09:07:06;;;;;;;18.50;8.30;;;;;;;-4.50;73.88;98750.75;4849395;29;20094;-57
2021/12/31 09:09:32;;;;;;;20.45;8.23;;;;;;;-4.41;73.31;98741.88;4854835;29;20057;-58
2021/12/31 09:11:59;;;;;;;23.25;8.90;;;;;;;-4.37;73.53;98734.88;4850229;29;20584;-59
2021/12/31 09:14:26;;;;;;;22.00;7.90;;;;;;;-4.31;73.54;98733.03;4854052;29;20057;-58
2021/12/31 09:16:54;;;;;;;22.65;7.95;;;;;;;-4.26;72.84;98733.88;4850555;29;20177;-62
2021/12/31 09:19:21;;;;;;;16.88;5.90;;;;;;;-4.30;73.25;98740.91;4852907;29;20235;-56
2021/12/31 09:21:47;;;;;;;19.40;7.30;;;;;;;-4.42;73.38;98736.72;4851551;29;20069;-59
2021/12/31 09:24:14;;;;;;;23.30;9.38;;;;;;;-4.53;73.84;98733.06;4851948;29;20042;-58
2021/12/31 09:26:41;;;;;;;16.65;6.38;;;;;;;-4.56;73.74;98719.22;4852661;29;20153;-61
2021/12/31 09:29:08;;;;;;;20.13;7.47;;;;;;;-4.55;73.77;98721.69;4851303;29;20110;-60
2021/12/31 09:31:35;;;;;;;22.65;9.15;;;;;;;-4.42;73.35;98731.28;4853518;29;20109;-58
2021/12/31 09:34:02;;;;;;;19.20;8.27;;;;;;;-4.34;73.08;98725.41;4857495;29;20041;-59
2021/12/31 09:36:29;;;;;;;26.75;10.23;;;;;;;-4.34;73.36;98711.81;4853862;29;20057;-59
2021/12/31 09:38:57;;;;;;;19.50;8.30;;;;;;;-4.28;73.28;98705.38;4849845;29;20077;-58
2021/12/31 09:41:23;;;;;;;22.40;8.85;;;;;;;-4.22;73.34;98705.16;4857498;29;20080;-60
2021/12/31 09:43:50;;;;;;;21.58;8.70;;;;;;;-4.15;72.93;98699.50;4849645;29;20054;-59
2021/12/31 09:46:19;;;;;;;28.20;8.52;;;;;;;-4.10;73.00;98707.69;4859895;29;20051;-62
2021/12/31 09:48:46;;;;;;;17.55;7.05;;;;;;;-4.12;73.62;98701.69;4849742;29;20062;-62
2021/12/31 09:51:13;;;;;;;24.48;10.38;;;;;;;-4.26;73.12;98717.59;4852975;29;20064;-63
2021/12/31 09:53:40;;;;;;;20.08;8.15;;;;;;;-4.29;73.44;98704.53;4850253;29;20053;-62
2021/12/31 09:56:08;;;;;;;21.35;8.75;;;;;;;-4.19;73.32;98699.22;4857880;29;20057;-63
2021/12/31 09:58:36;;;;;;;31.83;11.07;;;;;;;-4.05;73.60;98696.88;4849431;29;20483;-64
2021/12/31 10:01:04;;;;;;;31.02;10.30;;;;;;;-4.01;72.84;98704.25;4851194;29;20064;-62
2021/12/31 10:03:33;;;;;;;25.17;9.48;;;;;;;-4.02;73.39;98704.50;4851555;29;20513;-63
2021/12/31 10:06:08;;;;;;;25.42;9.60;;;;;;;-4.00;72.65;98705.06;4850771;29;20046;-64
2021/12/31 10:08:46;;;;;;;29.80;9.02;;;;;;;-4.04;73.12;98695.78;4850918;29;20058;-63
2021/12/31 10:11:25;;;;;;;87.82;26.60;;;;;;;-4.08;72.88;98683.81;4852220;29;20049;-62
2021/12/31 10:14:01;;;;;;;26.30;10.30;;;;;;;-3.98;72.81;98689.31;4856595;29;20497;-62
2021/12/31 10:16:39;;;;;;;23.67;9.95;;;;;;;-3.91;73.04;98684.47;4853829;29;20061;-63
2021/12/31 10:19:07;;;;;;;24.85;9.45;;;;;;;-3.88;73.21;98683.97;4848675;29;20053;-62
2021/12/31 10:21:43;;;;;;;25.52;9.27;;;;;;;-3.92;72.68;98693.72;4853204;29;20058;-63
2021/12/31 10:24:34;;;;;;;23.73;9.57;;;;;;;-3.91;72.85;98687.19;4849084;29;20103;-62
2021/12/31 10:27:03;;;;;;;28.55;10.80;;;;;;;-3.91;73.51;98670.91;4848688;29;20060;-62
2021/12/31 10:29:30;;;;;;;26.92;10.48;;;;;;;-3.87;72.87;98672.03;4851260;29;20061;-63
2021/12/31 10:31:58;;;;;;;28.73;10.98;;;;;;;-3.80;72.85;98672.63;4853299;29;20041;-63
2021/12/31 10:34:36;;;;;;;29.17;10.30;;;;;;;-3.79;72.73;98679.72;4854191;29;20046;-61
2021/12/31 10:37:17;;;;;;;27.33;11.25;;;;;;;-3.80;72.68;98673.44;4850403;29;20053;-63
2021/12/31 10:39:45;;;;;;;24.20;9.30;;;;;;;-3.80;72.82;98664.47;4852835;29;20053;-64
2021/12/31 10:42:14;;;;;;;30.02;10.20;;;;;;;-3.81;73.19;98662.84;4848297;29;20066;-62
2021/12/31 10:44:41;;;;;;;31.05;11.48;;;;;;;-3.77;73.27;98661.22;4852002;29;20049;-62
2021/12/31 10:47:11;;;;;;;29.40;9.63;;;;;;;-3.72;72.77;98672.13;4849357;29;20054;-63
2021/12/31 10:50:04;;;;;;;27.20;10.25;;;;;;;-3.79;73.23;98660.69;4851418;29;20065;-62
2021/12/31 10:52:57;;;;;;;33.08;10.88;;;;;;;-3.82;72.96;98653.84;4854229;29;20058;-62
2021/12/31 10:55:29;;;;;;;32.20;12.07;;;;;;;-3.85;73.09;98643.53;4857527;29;20053;-62
2021/12/31 10:58:01;;;;;;;31.08;10.98;;;;;;;-3.88;73.75;98635.06;4850602;29;20208;-62
2021/12/31 11:00:35;;;;;;;23.55;9.90;;;;;;;-3.98;73.40;98638.56;4863462;29;20064;-62
2021/12/31 11:03:02;;;;;;;24.02;11.00;;;;;;;-3.99;73.26;98636.09;4851121;29;20088;-63
2021/12/31 11:05:30;;;;;;;29.33;11.77;;;;;;;-3.98;72.98;98635.00;4849612;29;20093;-61
2021/12/31 11:08:02;;;;;;;29.67;10.73;;;;;;;-3.96;73.65;98627.44;4856659;29;20453;-63
2021/12/31 11:10:35;;;;;;;31.55;11.85;;;;;;;-4.02;72.69;98623.84;4848216;29;20069;-59
2021/12/31 11:13:09;;;;;;;26.55;9.60;;;;;;;-4.07;73.31;98609.44;4850879;29;20057;-61
2021/12/31 11:15:37;;;;;;;22.75;9.63;;;;;;;-4.08;73.44;98607.78;4848665;29;20496;-61
2021/12/31 11:18:05;;;;;;;29.98;10.70;;;;;;;-4.11;73.45;98619.19;4851765;29;20140;-61
2021/12/31 11:20:33;;;;;;;22.65;10.48;;;;;;;-4.16;73.78;98608.28;4848845;29;20562;-60
2021/12/31 11:23:00;;;;;;;29.45;9.65;;;;;;;-4.29;73.88;98606.03;4850193;29;20061;-59
2021/12/31 11:25:53;;;;;;;19.05;6.05;;;;;;;-4.34;74.02;98603.25;4855306;29;20528;-59
2021/12/31 11:28:25;;;;;;;27.65;9.77;;;;;;;-4.26;73.97;98595.44;4852396;29;20145;-60
2021/12/31 11:30:53;;;;;;;26.35;10.32;;;;;;;-4.26;73.95;98594.63;4846680;29;20057;-58
2021/12/31 11:33:26;;;;;;;30.80;11.57;;;;;;;-4.21;73.88;98591.94;4854070;29;20080;-60